Time;durP1;ratioP1;P1;durP2;ratioP2;P2;SDS_P1;SDS_P2;PMS_P1;PMS_P2;Temp;Humidity;BMP_temperature;BMP_pressure;BME280_temperature;BME280_humidity;BME280_pressure;Samples;Min_cycle;Max_cycle;Signal;HPM_P1;HPM_P2
2022/07/28 00:02:20;;;;;;;6.07;1.77;;;13.50;99.90;;;;;;5055928;28;20114;-73
2022/07/28 00:04:45;;;;;;;3.40;1.33;;;13.60;99.90;;;;;;5055046;28;20132;-73
2022/07/28 00:07:11;;;;;;;3.55;1.50;;;13.50;99.90;;;;;;5055547;28;20087;-74
2022/07/28 00:09:36;;;;;;;1.58;1.10;;;13.60;99.90;;;;;;5055551;28;20033;-73
2022/07/28 00:12:03;;;;;;;5.70;1.35;;;13.70;99.90;;;;;;5073463;28;20040;-73
2022/07/28 00:14:29;;;;;;;2.00;1.50;;;13.60;99.90;;;;;;5073203;28;20044;-73
2022/07/28 00:16:54;;;;;;;4.53;1.92;;;13.60;99.90;;;;;;5073606;28;20490;-74
2022/07/28 00:19:20;;;;;;;3.75;1.45;;;13.80;99.90;;;;;;5038907;28;20040;-74
2022/07/28 00:21:46;;;;;;;1.67;1.30;;;13.50;99.90;;;;;;5038816;28;20056;-74
2022/07/28 00:24:11;;;;;;;3.17;1.40;;;13.40;99.90;;;;;;5054918;28;20080;-74
2022/07/28 00:26:37;;;;;;;4.03;1.60;;;13.50;99.90;;;;;;5055551;28;20032;-73
2022/07/28 00:29:04;;;;;;;2.53;1.35;;;13.30;99.90;;;;;;5055103;28;20032;-74
2022/07/28 00:31:29;;;;;;;4.15;1.65;;;13.40;99.90;;;;;;5054967;28;20040;-74
2022/07/28 00:33:55;;;;;;;4.05;1.83;;;13.40;99.90;;;;;;5054646;28;20032;-73
2022/07/28 00:36:20;;;;;;;8.52;2.28;;;13.50;99.90;;;;;;5072961;28;20092;-73
2022/07/28 00:38:46;;;;;;;3.40;1.48;;;13.50;99.90;;;;;;5055126;28;20529;-73
2022/07/28 00:41:12;;;;;;;4.30;1.80;;;13.50;99.90;;;;;;5038582;28;20047;-73
2022/07/28 00:43:45;;;;;;;2.55;1.40;;;13.40;99.90;;;;;;5072567;28;20122;-73
2022/07/28 00:46:11;;;;;;;4.72;1.75;;;13.40;99.90;;;;;;5054643;28;20041;-73
2022/07/28 00:48:39;;;;;;;3.25;1.50;;;13.40;99.90;;;;;;5054710;28;20040;-74
2022/07/28 00:51:06;;;;;;;3.33;1.33;;;13.40;99.90;;;;;;5072539;28;20032;-73
2022/07/28 00:53:31;;;;;;;3.30;1.83;;;13.50;99.90;;;;;;5072597;28;20036;-73
2022/07/28 00:55:57;;;;;;;3.88;1.48;;;13.40;99.90;;;;;;5072576;28;20047;-73
2022/07/28 00:58:24;;;;;;;1.98;1.35;;;13.30;99.90;;;;;;5072491;28;20510;-74
2022/07/28 01:00:50;;;;;;;4.07;1.83;;;13.60;99.90;;;;;;5054681;28;20068;-74
2022/07/28 01:03:16;;;;;;;3.92;1.52;;;13.30;99.90;;;;;;5038058;28;20512;-73
2022/07/28 01:06:15;;;;;;;2.53;1.67;;;14.00;99.90;;;;;;5054607;28;20106;-73
2022/07/28 01:09:18;;;;;;;3.58;1.58;;;13.30;99.90;;;;;;5054946;28;20047;-74
2022/07/28 01:11:44;;;;;;;5.97;2.10;;;13.40;99.90;;;;;;5038003;28;20149;-74
2022/07/28 01:14:14;;;;;;;3.67;1.60;;;14.80;99.90;;;;;;5037552;28;20583;-73
2022/07/28 01:16:49;;;;;;;3.17;1.38;;;13.40;99.90;;;;;;5054533;28;20375;-74
2022/07/28 01:20:08;;;;;;;2.22;1.60;;;13.30;99.90;;;;;;5054136;28;20051;-73
2022/07/28 01:22:44;;;;;;;2.70;1.50;;;13.10;99.90;;;;;;4973975;28;20053;-73
2022/07/28 01:25:35;;;;;;;3.00;1.67;;;13.30;99.90;;;;;;4974134;28;20377;-74
2022/07/28 01:28:27;;;;;;;3.15;1.50;;;13.20;99.90;;;;;;5022475;28;20045;-73
2022/07/28 01:31:01;;;;;;;3.17;1.60;;;13.30;99.90;;;;;;5043489;28;20056;-73
2022/07/28 01:33:46;;;;;;;1.80;1.30;;;13.30;99.90;;;;;;5072195;28;20106;-73
2022/07/28 01:36:16;;;;;;;3.65;1.83;;;12.90;99.90;;;;;;5054325;28;20071;-73
2022/07/28 01:38:44;;;;;;;2.58;1.30;;;13.20;99.90;;;;;;5054243;28;20094;-73
2022/07/28 01:41:22;;;;;;;4.10;1.58;;;13.30;99.90;;;;;;5054012;28;20059;-73
2022/07/28 01:43:55;;;;;;;2.97;1.38;;;13.00;99.90;;;;;;5054037;28;20114;-73
2022/07/28 01:46:23;;;;;;;1.55;1.40;;;13.10;99.90;;;;;;5054680;28;20127;-73
2022/07/28 01:48:49;;;;;;;2.30;1.30;;;13.20;99.90;;;;;;5054554;28;20514;-73
2022/07/28 01:51:17;;;;;;;3.05;1.50;;;13.10;99.90;;;;;;5054914;28;20036;-73
2022/07/28 01:53:44;;;;;;;5.30;1.63;;;13.20;99.90;;;;;;5054855;28;20059;-72
2022/07/28 01:56:11;;;;;;;4.90;1.67;;;13.20;99.90;;;;;;5056729;28;20055;-73
2022/07/28 01:58:38;;;;;;;3.50;1.88;;;14.00;99.90;;;;;;5059522;28;20055;-73
2022/07/28 02:01:05;;;;;;;2.30;1.27;;;13.10;99.90;;;;;;5059011;28;20041;-73
2022/07/28 02:03:33;;;;;;;5.25;1.50;;;13.20;99.90;;;;;;5075917;28;20406;-73
2022/07/28 02:06:01;;;;;;;2.47;1.50;;;13.20;99.90;;;;;;5075543;28;20047;-73
2022/07/28 02:08:29;;;;;;;1.83;1.35;;;12.90;99.90;;;;;;5075678;28;20036;-73
2022/07/28 02:11:38;;;;;;;2.33;1.38;;;13.00;99.90;;;;;;5041128;28;20482;-73
2022/07/28 02:13:50;;;;;;;2.42;1.58;;;13.00;99.90;;;;;;5057815;28;20052;-73
2022/07/28 02:16:19;;;;;;;2.88;1.50;;;12.80;99.90;;;;;;5057675;28;20079;-73
2022/07/28 02:18:46;;;;;;;2.80;1.80;;;13.10;99.90;;;;;;5075407;28;20044;-73
2022/07/28 02:21:13;;;;;;;2.72;1.52;;;12.80;99.90;;;;;;5057670;28;20052;-73
2022/07/28 02:23:41;;;;;;;1.95;1.38;;;13.60;99.90;;;;;;5057772;28;20041;-74
2022/07/28 02:26:11;;;;;;;5.25;1.60;;;12.90;99.90;;;;;;5075270;28;20040;-73
2022/07/28 02:28:41;;;;;;;2.83;1.27;;;12.80;99.90;;;;;;5041093;28;20041;-73
2022/07/28 02:31:23;;;;;;;1.80;1.38;;;12.70;99.90;;;;;;5075274;28;20036;-73
2022/07/28 02:33:50;;;;;;;3.95;1.67;;;12.80;99.90;;;;;;5057516;28;20049;-73
2022/07/28 02:36:29;;;;;;;2.92;1.52;;;12.70;99.90;;;;;;5057668;28;20072;-73
2022/07/28 02:39:00;;;;;;;5.32;1.70;;;12.90;99.90;;;;;;5075636;28;20116;-73
2022/07/28 02:41:28;;;;;;;4.50;1.50;;;12.80;99.90;;;;;;5075270;28;20041;-73
2022/07/28 02:44:00;;;;;;;3.28;1.45;;;14.00;99.90;;;;;;5074945;28;20398;-73
2022/07/28 02:46:31;;;;;;;5.03;1.50;;;12.90;99.90;;;;;;5040997;28;20375;-73
2022/07/28 02:49:05;;;;;;;4.18;1.60;;;12.90;99.90;;;;;;5057748;28;20506;-73
2022/07/28 02:51:33;;;;;;;5.25;1.60;;;12.80;99.90;;;;;;5075354;28;20416;-73
2022/07/28 02:54:00;;;;;;;2.88;1.30;;;12.80;99.90;;;;;;5057116;28;20045;-73
2022/07/28 02:56:27;;;;;;;1.80;1.17;;;12.70;99.90;;;;;;5057801;28;20048;-73
2022/07/28 02:58:54;;;;;;;1.52;1.27;;;12.70;99.90;;;;;;5057504;28;20070;-73
2022/07/28 03:01:21;;;;;;;2.00;1.27;;;12.80;99.90;;;;;;5041502;28;20391;-73
2022/07/28 03:03:48;;;;;;;2.28;1.15;;;12.80;99.90;;;;;;5075144;28;20080;-73
2022/07/28 03:06:16;;;;;;;3.20;1.42;;;12.50;99.90;;;;;;5057621;28;20119;-73
2022/07/28 03:08:42;;;;;;;4.28;2.25;;;12.60;99.90;;;;;;5056718;28;20040;-73
2022/07/28 03:11:12;;;;;;;1.80;1.33;;;12.80;99.90;;;;;;5057726;28;20041;-73
2022/07/28 03:13:39;;;;;;;2.20;1.45;;;12.70;99.90;;;;;;5058003;28;20036;-73
2022/07/28 03:16:05;;;;;;;3.05;1.23;;;12.60;99.90;;;;;;5057904;28;20085;-73
2022/07/28 03:18:31;;;;;;;1.98;1.35;;;12.60;99.90;;;;;;5075916;28;20078;-73
2022/07/28 03:20:57;;;;;;;2.17;1.50;;;13.50;99.90;;;;;;5075349;28;20071;-73
2022/07/28 03:23:41;;;;;;;1.67;1.45;;;12.60;99.90;;;;;;5075517;28;20033;-73
2022/07/28 03:26:31;;;;;;;1.65;1.40;;;12.60;99.90;;;;;;5057679;28;20039;-73
2022/07/28 03:28:59;;;;;;;1.95;1.33;;;12.50;99.90;;;;;;5075579;28;20051;-73
2022/07/28 03:31:26;;;;;;;1.85;1.40;;;12.40;99.90;;;;;;5075564;28;20041;-73
2022/07/28 03:33:52;;;;;;;2.20;1.30;;;12.30;99.90;;;;;;5040764;28;20055;-73
2022/07/28 03:36:23;;;;;;;4.85;1.92;;;12.40;99.90;;;;;;5057921;28;20044;-73
2022/07/28 03:38:56;;;;;;;5.32;1.42;;;12.20;99.90;;;;;;5075727;28;20040;-73
2022/07/28 03:41:24;;;;;;;2.85;1.70;;;12.40;99.90;;;;;;5058182;28;20040;-73
2022/07/28 03:43:50;;;;;;;3.10;1.67;;;12.40;99.90;;;;;;5075343;28;20124;-72
2022/07/28 03:46:16;;;;;;;2.72;1.85;;;12.40;99.90;;;;;;5075463;28;20040;-73
2022/07/28 03:48:41;;;;;;;2.95;1.35;;;12.30;99.90;;;;;;5075218;28;20070;-73
2022/07/28 03:51:08;;;;;;;2.67;1.67;;;12.30;99.90;;;;;;5075485;28;20036;-74
2022/07/28 03:53:34;;;;;;;2.17;1.60;;;12.30;99.90;;;;;;5040481;28;20036;-73
2022/07/28 03:55:59;;;;;;;5.75;2.10;;;12.30;99.90;;;;;;5075439;28;20047;-73
2022/07/28 03:58:27;;;;;;;2.13;1.30;;;12.30;99.90;;;;;;5057472;28;20533;-73
2022/07/28 04:00:52;;;;;;;2.13;1.33;;;12.40;99.90;;;;;;5040171;28;20037;-73
2022/07/28 04:03:18;;;;;;;1.73;1.38;;;12.50;99.90;;;;;;5057011;28;20040;-73
2022/07/28 04:05:45;;;;;;;2.67;1.45;;;12.40;99.90;;;;;;5074066;28;20147;-73
2022/07/28 04:08:11;;;;;;;2.33;1.27;;;12.60;99.90;;;;;;5057202;28;20044;-73
2022/07/28 04:10:37;;;;;;;1.40;1.20;;;12.60;99.90;;;;;;5057192;28;20563;-73
2022/07/28 04:13:03;;;;;;;2.75;1.55;;;12.50;99.90;;;;;;5056942;28;20158;-73
2022/07/28 04:15:31;;;;;;;3.45;2.20;;;12.40;99.90;;;;;;5056545;28;20032;-73
2022/07/28 04:17:57;;;;;;;3.00;1.70;;;12.80;99.90;;;;;;5057281;28;20044;-74
2022/07/28 04:20:24;;;;;;;5.53;1.95;;;12.70;99.90;;;;;;5040689;28;20089;-73
2022/07/28 04:22:50;;;;;;;1.88;1.60;;;12.80;99.90;;;;;;5056918;28;20489;-73
2022/07/28 04:25:18;;;;;;;3.17;1.52;;;12.80;99.90;;;;;;5056098;28;20089;-73
2022/07/28 04:27:44;;;;;;;3.05;2.10;;;12.70;99.90;;;;;;5055845;28;20036;-73
2022/07/28 04:30:13;;;;;;;3.72;1.70;;;12.80;99.90;;;;;;5055356;28;20037;-73
2022/07/28 04:32:39;;;;;;;3.85;1.80;;;12.80;99.90;;;;;;5056341;28;20036;-74
2022/07/28 04:35:07;;;;;;;2.70;1.85;;;12.80;99.90;;;;;;5073829;28;20052;-73
2022/07/28 04:37:33;;;;;;;3.63;1.60;;;12.70;99.90;;;;;;5056292;28;20040;-73
2022/07/28 04:39:58;;;;;;;2.65;1.92;;;12.50;99.90;;;;;;5056142;28;20047;-73
2022/07/28 04:42:24;;;;;;;7.90;2.13;;;12.70;99.90;;;;;;5038594;28;20486;-73
2022/07/28 04:44:50;;;;;;;3.42;1.77;;;12.60;99.90;;;;;;5073714;28;20408;-74
2022/07/28 04:47:15;;;;;;;3.88;2.17;;;12.60;99.90;;;;;;5073599;28;20044;-73
2022/07/28 04:49:41;;;;;;;4.90;1.95;;;12.40;99.90;;;;;;5056246;28;20036;-73
2022/07/28 04:52:07;;;;;;;2.97;2.20;;;12.60;99.90;;;;;;5056348;28;20033;-73
2022/07/28 04:54:33;;;;;;;2.60;2.03;;;12.50;99.90;;;;;;5073315;28;20556;-73
2022/07/28 04:56:59;;;;;;;4.47;2.15;;;12.70;99.90;;;;;;5074952;28;20083;-73
2022/07/28 04:59:25;;;;;;;5.10;2.50;;;12.60;99.90;;;;;;5056384;28;20040;-74
2022/07/28 05:01:51;;;;;;;5.00;2.08;;;12.70;99.90;;;;;;5055960;28;20051;-73
2022/07/28 05:04:16;;;;;;;3.17;2.42;;;12.70;99.90;;;;;;5073940;28;20044;-73
2022/07/28 05:06:42;;;;;;;4.43;2.38;;;12.80;99.90;;;;;;5056561;28;20177;-73
2022/07/28 05:09:08;;;;;;;4.20;2.13;;;12.80;99.90;;;;;;5039428;28;20039;-73
2022/07/28 05:11:33;;;;;;;4.80;2.17;;;13.00;99.90;;;;;;5073360;28;20059;-74
2022/07/28 05:13:59;;;;;;;5.57;2.58;;;13.00;99.90;;;;;;5039675;28;20045;-74
2022/07/28 05:16:24;;;;;;;6.63;2.40;;;12.90;99.90;;;;;;5055736;28;20072;-73
2022/07/28 05:18:50;;;;;;;2.47;2.03;;;13.60;99.90;;;;;;5056417;28;20567;-73
2022/07/28 05:21:15;;;;;;;3.75;2.38;;;13.20;99.90;;;;;;5056400;28;20067;-73
2022/07/28 05:23:41;;;;;;;4.05;2.25;;;13.30;99.90;;;;;;5055755;28;20040;-73
2022/07/28 05:26:06;;;;;;;4.45;2.70;;;13.40;99.90;;;;;;5055416;28;20045;-73
2022/07/28 05:28:32;;;;;;;3.28;2.55;;;13.60;99.90;;;;;;5055424;28;20036;-73
2022/07/28 05:30:58;;;;;;;5.78;2.22;;;13.60;99.90;;;;;;5053978;28;20065;-73
2022/07/28 05:33:24;;;;;;;2.70;2.25;;;13.70;99.90;;;;;;5054635;28;20463;-73
2022/07/28 05:35:53;;;;;;;2.97;2.17;;;13.70;99.90;;;;;;5072403;28;20051;-73
2022/07/28 05:38:19;;;;;;;7.55;2.97;;;13.60;99.90;;;;;;5054401;28;20059;-73
2022/07/28 05:40:47;;;;;;;5.47;2.05;;;13.80;99.90;;;;;;5072954;28;20490;-73
2022/07/28 05:43:12;;;;;;;4.47;2.28;;;13.80;99.90;;;;;;5058842;28;20050;-73
2022/07/28 05:45:38;;;;;;;7.13;3.40;;;13.90;99.90;;;;;;5053598;28;20028;-73
2022/07/28 05:48:04;;;;;;;3.00;2.70;;;14.00;99.90;;;;;;5071989;28;20037;-73
2022/07/28 05:50:30;;;;;;;6.30;2.35;;;14.10;99.90;;;;;;5050358;28;20087;-73
2022/07/28 05:52:55;;;;;;;10.07;2.92;;;14.30;99.90;;;;;;5033365;28;20475;-73
2022/07/28 05:55:21;;;;;;;4.70;2.88;;;14.50;99.90;;;;;;5032755;28;20128;-73
2022/07/28 05:57:46;;;;;;;4.50;2.53;;;14.60;99.90;;;;;;5067833;28;20035;-73
2022/07/28 06:00:18;;;;;;;3.20;2.05;;;14.60;99.90;;;;;;5033102;28;20444;-72
2022/07/28 06:02:44;;;;;;;5.80;2.45;;;14.70;99.90;;;;;;5050227;28;20040;-73
2022/07/28 06:05:11;;;;;;;8.30;2.10;;;14.80;99.90;;;;;;5049618;28;20032;-71
2022/07/28 06:07:36;;;;;;;5.18;2.25;;;14.90;99.90;;;;;;5049519;28;20036;-74
2022/07/28 06:10:03;;;;;;;5.47;2.80;;;15.10;99.90;;;;;;5050195;28;20075;-74
2022/07/28 06:12:28;;;;;;;6.28;2.70;;;15.00;99.90;;;;;;5049602;28;20562;-73
2022/07/28 06:14:54;;;;;;;14.70;2.97;;;15.30;99.90;;;;;;5049643;28;20119;-74
2022/07/28 06:17:19;;;;;;;16.92;2.42;;;15.30;99.90;;;;;;5063796;28;20589;-74
2022/07/28 06:19:45;;;;;;;4.13;1.30;;;15.30;99.90;;;;;;5049365;28;20054;-74
2022/07/28 06:22:11;;;;;;;3.00;1.45;;;15.40;99.90;;;;;;5033350;28;20052;-71
2022/07/28 06:24:36;;;;;;;3.63;1.25;;;15.50;99.90;;;;;;5047331;28;20081;-71
2022/07/28 06:27:02;;;;;;;3.40;1.10;;;15.60;99.90;;;;;;5051616;28;20059;-73
2022/07/28 06:29:29;;;;;;;2.65;1.40;;;15.80;99.90;;;;;;5052754;28;20032;-73
2022/07/28 06:31:55;;;;;;;5.70;1.30;;;15.80;99.90;;;;;;5052881;28;20031;-73
2022/07/28 06:34:20;;;;;;;3.97;0.90;;;16.20;99.90;;;;;;5075513;28;20482;-73
2022/07/28 06:36:46;;;;;;;5.72;1.58;;;16.00;99.90;;;;;;5052953;28;20028;-73
2022/07/28 06:39:11;;;;;;;3.35;1.20;;;15.90;99.90;;;;;;5067533;28;20118;-71
2022/07/28 06:41:40;;;;;;;2.67;1.10;;;16.10;99.90;;;;;;5052838;28;20036;-74
2022/07/28 06:44:07;;;;;;;2.45;1.15;;;16.10;99.90;;;;;;5064547;28;20039;-74
2022/07/28 06:46:34;;;;;;;4.55;1.02;;;16.30;99.90;;;;;;5076937;28;20545;-75
2022/07/28 06:48:59;;;;;;;4.85;1.27;;;15.10;99.90;;;;;;5076696;28;20028;-75
2022/07/28 06:51:25;;;;;;;3.05;1.20;;;16.60;99.90;;;;;;5076812;28;20062;-75
2022/07/28 06:53:51;;;;;;;3.28;1.02;;;16.80;99.90;;;;;;5076560;28;20158;-74
2022/07/28 06:56:18;;;;;;;2.67;1.00;;;16.50;99.90;;;;;;5077072;28;20131;-74
2022/07/28 06:58:44;;;;;;;5.07;1.30;;;16.80;99.90;;;;;;5095318;28;20039;-75
2022/07/28 07:01:09;;;;;;;4.68;0.88;;;16.70;99.90;;;;;;5076837;28;20369;-75
2022/07/28 07:03:35;;;;;;;3.13;0.68;;;16.70;99.90;;;;;;5094772;28;20047;-74
2022/07/28 07:06:01;;;;;;;2.78;1.20;;;17.30;99.90;;;;;;5076599;28;20043;-74
2022/07/28 07:08:27;;;;;;;3.22;0.80;;;17.20;99.90;;;;;;5052638;28;20127;-74
2022/07/28 07:10:52;;;;;;;4.75;1.27;;;17.10;99.90;;;;;;5045394;28;20040;-75
2022/07/28 07:13:18;;;;;;;2.88;1.00;;;17.20;99.90;;;;;;5074980;28;20032;-74
2022/07/28 07:15:43;;;;;;;3.25;1.15;;;17.20;99.90;;;;;;5039501;28;20047;-74
2022/07/28 07:18:09;;;;;;;1.85;0.90;;;17.30;99.90;;;;;;5056591;28;20074;-74
2022/07/28 07:20:34;;;;;;;3.63;0.68;;;17.40;99.90;;;;;;5056577;28;20047;-74
2022/07/28 07:23:00;;;;;;;1.08;0.70;;;18.10;99.90;;;;;;5056324;28;20044;-75
2022/07/28 07:25:26;;;;;;;3.38;0.80;;;17.50;99.90;;;;;;5056269;28;20474;-75
2022/07/28 07:27:51;;;;;;;2.45;0.70;;;17.30;99.90;;;;;;5070184;28;20501;-74
2022/07/28 07:30:17;;;;;;;3.25;0.80;;;17.30;99.90;;;;;;5052539;28;20075;-75
2022/07/28 07:32:43;;;;;;;9.75;1.30;;;17.30;99.90;;;;;;5054307;28;20131;-74
2022/07/28 07:35:09;;;;;;;2.38;0.98;;;17.30;99.90;;;;;;5073849;28;20032;-75
2022/07/28 07:37:35;;;;;;;3.85;1.50;;;17.80;99.90;;;;;;5073811;28;20044;-72
2022/07/28 07:40:05;;;;;;;5.40;1.50;;;16.90;99.90;;;;;;5082294;28;20491;-74
2022/07/28 07:42:31;;;;;;;2.40;1.20;;;17.20;99.90;;;;;;5054617;28;20406;-74
2022/07/28 07:44:56;;;;;;;3.13;0.75;;;17.30;99.90;;;;;;5082242;28;20040;-73
2022/07/28 07:47:22;;;;;;;3.95;1.15;;;17.00;99.90;;;;;;5084881;28;20047;-74
2022/07/28 07:49:48;;;;;;;3.63;1.50;;;17.00;99.90;;;;;;5065489;28;20040;-73
2022/07/28 07:52:13;;;;;;;3.33;1.20;;;17.20;99.90;;;;;;5066483;28;20032;-74
2022/07/28 07:54:39;;;;;;;3.97;0.98;;;17.80;99.90;;;;;;5072704;28;20082;-74
2022/07/28 07:57:04;;;;;;;6.45;0.98;;;17.10;99.90;;;;;;5094954;28;20039;-74
2022/07/28 07:59:30;;;;;;;1.70;1.02;;;16.70;99.90;;;;;;5080629;28;20517;-74
2022/07/28 08:01:56;;;;;;;5.40;0.95;;;16.90;99.90;;;;;;5038999;28;20056;-74
2022/07/28 08:04:23;;;;;;;2.47;1.10;;;16.90;99.90;;;;;;5055695;28;20112;-74
2022/07/28 08:06:49;;;;;;;2.65;0.90;;;17.00;99.90;;;;;;5055363;28;20051;-74
2022/07/28 08:09:16;;;;;;;7.00;1.42;;;17.20;99.90;;;;;;5056552;28;20145;-74
2022/07/28 08:11:42;;;;;;;2.38;1.00;;;16.50;99.90;;;;;;5039497;28;20047;-74
2022/07/28 08:14:07;;;;;;;3.75;1.10;;;17.60;99.90;;;;;;5055378;28;20049;-74
2022/07/28 08:16:33;;;;;;;2.95;1.20;;;16.80;99.90;;;;;;5074598;28;20041;-74
2022/07/28 08:18:58;;;;;;;2.67;1.15;;;16.70;99.90;;;;;;5055353;28;20167;-74
2022/07/28 08:21:25;;;;;;;7.22;1.52;;;16.50;99.90;;;;;;5038894;28;20102;-74
2022/07/28 08:23:51;;;;;;;7.45;1.80;;;16.50;99.90;;;;;;5055816;28;20113;-74
2022/07/28 08:26:17;;;;;;;4.18;1.58;;;16.60;99.90;;;;;;5056044;28;20032;-73
2022/07/28 08:28:43;;;;;;;3.47;1.25;;;16.40;99.90;;;;;;5056681;28;20137;-74
2022/07/28 08:31:09;;;;;;;4.97;1.10;;;16.60;99.90;;;;;;5073474;28;20032;-74
2022/07/28 08:33:34;;;;;;;4.93;1.15;;;16.70;99.90;;;;;;5080944;28;20409;-74
2022/07/28 08:36:00;;;;;;;2.50;1.00;;;17.70;99.90;;;;;;5067705;28;20047;-74
2022/07/28 08:38:25;;;;;;;2.85;0.93;;;16.70;99.90;;;;;;5075543;28;20071;-74
2022/07/28 08:40:54;;;;;;;6.10;1.30;;;16.80;99.90;;;;;;5058863;28;20043;-74
2022/07/28 08:43:33;;;;;;;3.63;0.80;;;17.00;99.90;;;;;;5074147;28;20040;-74
2022/07/28 08:46:00;;;;;;;2.97;1.20;;;17.40;99.90;;;;;;5057843;28;20393;-73
2022/07/28 08:48:29;;;;;;;3.17;1.10;;;17.50;99.90;;;;;;5074464;28;20029;-74
2022/07/28 08:50:59;;;;;;;4.97;1.30;;;17.50;99.90;;;;;;5084809;28;20389;-73
2022/07/28 08:53:26;;;;;;;3.67;1.45;;;17.40;99.90;;;;;;5075583;28;20032;-73
2022/07/28 08:55:52;;;;;;;1.85;0.93;;;17.60;99.90;;;;;;5055579;28;20085;-73
2022/07/28 08:58:18;;;;;;;2.00;1.10;;;18.00;99.90;;;;;;5054143;28;20040;-73
2022/07/28 09:00:45;;;;;;;1.55;0.85;;;18.00;99.90;;;;;;5053833;28;20043;-73
2022/07/28 09:03:12;;;;;;;2.45;1.15;;;18.30;99.90;;;;;;5054101;28;20482;-73
2022/07/28 09:05:40;;;;;;;1.98;1.35;;;19.20;99.90;;;;;;5052541;28;20048;-73
2022/07/28 09:08:05;;;;;;;3.38;1.25;;;18.40;99.90;;;;;;5053886;28;20113;-73
2022/07/28 09:10:31;;;;;;;4.00;0.80;;;18.30;99.90;;;;;;5053978;28;20125;-73
2022/07/28 09:12:57;;;;;;;1.75;0.90;;;18.40;99.90;;;;;;5053864;28;20036;-73
2022/07/28 09:15:22;;;;;;;4.10;1.15;;;18.30;99.90;;;;;;5071556;28;20043;-73
2022/07/28 09:17:48;;;;;;;2.00;0.70;;;18.40;99.90;;;;;;5053835;28;20494;-73
2022/07/28 09:20:15;;;;;;;16.10;2.55;;;18.40;99.90;;;;;;5071697;28;20051;-73
2022/07/28 09:22:59;;;;;;;1.83;1.00;;;18.80;99.90;;;;;;5054148;28;20041;-73
2022/07/28 09:25:25;;;;;;;2.90;1.00;;;18.20;99.90;;;;;;5073186;28;20036;-73
2022/07/28 09:27:51;;;;;;;2.13;0.88;;;18.20;99.90;;;;;;5073611;28;20048;-73
2022/07/28 09:30:33;;;;;;;2.38;0.80;;;18.00;99.90;;;;;;5073640;28;20063;-73
2022/07/28 09:33:18;;;;;;;5.53;0.93;;;18.10;99.90;;;;;;5073596;28;20036;-73
2022/07/28 09:35:45;;;;;;;1.95;0.70;;;17.90;99.90;;;;;;5089527;28;20067;-73
2022/07/28 09:38:12;;;;;;;1.45;0.90;;;18.10;99.90;;;;;;5063405;28;20032;-73
2022/07/28 09:40:38;;;;;;;1.90;0.80;;;18.50;99.90;;;;;;5090718;28;20072;-70
2022/07/28 09:43:04;;;;;;;2.67;1.20;;;17.90;99.90;;;;;;5063005;28;20033;-73
2022/07/28 09:45:29;;;;;;;5.10;1.13;;;17.90;99.90;;;;;;5073248;28;20036;-73
2022/07/28 09:48:11;;;;;;;2.47;1.20;;;18.20;99.90;;;;;;5071348;28;20063;-73
2022/07/28 09:50:39;;;;;;;3.70;1.13;;;18.20;99.90;;;;;;5053188;28;20131;-73
2022/07/28 09:53:25;;;;;;;3.05;0.80;;;18.40;99.90;;;;;;5070574;28;20043;-73
2022/07/28 09:55:56;;;;;;;1.70;1.20;;;18.80;99.90;;;;;;5053473;28;20040;-73
2022/07/28 09:58:22;;;;;;;4.03;1.30;;;19.50;99.90;;;;;;5053703;28;20451;-73
2022/07/28 10:00:48;;;;;;;3.00;1.20;;;18.80;99.90;;;;;;5071692;28;20089;-73
2022/07/28 10:03:24;;;;;;;2.72;1.08;;;18.90;99.90;;;;;;5053612;28;20044;-73
2022/07/28 10:05:50;;;;;;;5.18;1.42;;;18.90;99.90;;;;;;5071018;28;20665;-73
2022/07/28 10:08:15;;;;;;;0.88;0.73;;;19.00;99.90;;;;;;5053654;28;20033;-72
2022/07/28 10:10:41;;;;;;;1.83;0.85;;;19.00;99.90;;;;;;5053206;28;20462;-73
2022/07/28 10:13:07;;;;;;;2.10;0.80;;;19.40;99.90;;;;;;5036499;28;20109;-73
2022/07/28 10:18:17;;;;;;;2.78;0.95;;;19.20;99.90;;;;;;5056074;28;20042;-73
2022/07/28 10:20:43;;;;;;;2.22;1.08;;;19.60;99.90;;;;;;5076690;22;20037;-70
2022/07/28 10:23:12;;;;;;;3.08;0.82;;;20.10;99.90;;;;;;5036720;28;20143;-70
2022/07/28 10:25:40;;;;;;;3.90;1.00;;;20.30;99.90;;;;;;5036576;28;20067;-69
2022/07/28 10:28:08;;;;;;;2.28;1.15;;;20.40;99.90;;;;;;5037414;28;20075;-70
2022/07/28 10:30:39;;;;;;;2.67;1.00;;;20.20;99.90;;;;;;5039615;28;20395;-70
2022/07/28 10:33:12;;;;;;;1.08;0.70;;;20.30;99.90;;;;;;5057168;28;20378;-70
2022/07/28 10:35:38;;;;;;;;;;;20.40;99.90;;;;;;5057212;28;20086;-70
2022/07/28 10:38:11;;;;;;;1.98;0.77;;;20.50;99.90;;;;;;5074872;28;19923;-70
2022/07/28 10:40:44;;;;;;;1.95;0.95;;;20.20;99.70;;;;;;5056721;28;20044;-71
2022/07/28 10:43:10;;;;;;;1.05;0.60;;;20.10;99.90;;;;;;5069916;28;20043;-70
2022/07/28 10:45:38;;;;;;;1.60;0.90;;;20.20;99.90;;;;;;5052671;28;20041;-70
2022/07/28 10:48:07;;;;;;;2.55;0.90;;;20.50;99.90;;;;;;5053291;28;20044;-69
2022/07/28 10:50:34;;;;;;;6.25;1.25;;;21.00;99.90;;;;;;5052843;28;20041;-70
2022/07/28 10:53:02;;;;;;;2.88;0.80;;;20.80;99.90;;;;;;5036594;28;20089;-70
2022/07/28 10:55:46;;;;;;;3.78;0.90;;;20.90;99.90;;;;;;5070288;28;20115;-70
2022/07/28 10:58:36;;;;;;;2.70;0.80;;;20.80;99.70;;;;;;5067335;28;20494;-71
2022/07/28 11:01:02;;;;;;;2.35;1.10;;;20.70;99.60;;;;;;5031642;28;20595;-71
2022/07/28 11:03:43;;;;;;;1.80;1.10;;;20.30;99.80;;;;;;5067434;28;20044;-70
2022/07/28 11:06:27;;;;;;;1.88;0.70;;;20.20;99.70;;;;;;5058684;28;20055;-71
2022/07/28 11:08:54;;;;;;;5.22;1.38;;;20.00;99.90;;;;;;5067564;28;20120;-71
2022/07/28 11:11:49;;;;;;;3.85;0.95;;;19.40;99.90;;;;;;5070809;28;20436;-75
2022/07/28 11:14:24;;;;;;;2.80;1.10;;;19.30;99.80;;;;;;5073512;28;20111;-69
2022/07/28 11:17:14;;;;;;;2.33;0.95;;;19.10;99.90;;;;;;5046545;28;20083;-70
2022/07/28 11:19:42;;;;;;;1.80;1.00;;;19.40;99.90;;;;;;5030681;28;20048;-71
2022/07/28 11:22:17;;;;;;;4.43;1.05;;;19.10;99.90;;;;;;5037616;28;20049;-71
2022/07/28 11:24:55;;;;;;;4.03;1.00;;;18.80;99.90;;;;;;5041449;28;20033;-70
2022/07/28 11:27:39;;;;;;;4.07;2.50;;;19.40;99.90;;;;;;5052252;28;20469;-71
2022/07/28 11:30:10;;;;;;;4.22;1.65;;;19.50;99.90;;;;;;5067254;28;20093;-71
2022/07/28 11:32:52;;;;;;;3.00;1.20;;;19.20;99.90;;;;;;5037561;28;20037;-70
2022/07/28 11:35:19;;;;;;;3.22;1.13;;;18.70;99.90;;;;;;5044828;28;20453;-71
2022/07/28 11:38:00;;;;;;;2.88;1.10;;;18.80;99.90;;;;;;5035626;28;20037;-71
2022/07/28 11:40:32;;;;;;;3.13;1.10;;;18.90;99.90;;;;;;5036432;28;20406;-71
2022/07/28 11:43:19;;;;;;;6.10;1.65;;;18.70;99.90;;;;;;5051145;28;20452;-70
2022/07/28 11:45:50;;;;;;;5.10;1.77;;;18.60;99.90;;;;;;5035585;28;20450;-71
2022/07/28 11:48:20;;;;;;;2.47;0.88;;;18.40;99.90;;;;;;5052885;28;20040;-70
2022/07/28 11:51:04;;;;;;;3.17;1.10;;;18.30;99.90;;;;;;5035261;28;20123;-71
2022/07/28 11:53:55;;;;;;;4.25;0.90;;;18.20;99.90;;;;;;5035487;28;20040;-70
2022/07/28 11:56:28;;;;;;;4.13;1.10;;;18.50;99.90;;;;;;5014249;28;20388;-70
2022/07/28 11:58:59;;;;;;;4.37;1.13;;;19.30;99.90;;;;;;5035457;28;20506;-68
2022/07/28 12:01:25;;;;;;;1.83;0.80;;;18.40;99.90;;;;;;5034384;28;20116;-68
2022/07/28 12:03:53;;;;;;;6.00;1.60;;;18.90;99.90;;;;;;5034729;28;20052;-71
2022/07/28 12:06:21;;;;;;;5.43;1.00;;;18.80;99.90;;;;;;5042572;28;20071;-70
2022/07/28 12:08:57;;;;;;;2.05;0.90;;;18.40;99.90;;;;;;5072546;28;20067;-70
2022/07/28 12:11:24;;;;;;;1.10;0.77;;;18.40;99.90;;;;;;5055684;28;20032;-74
2022/07/28 12:14:01;;;;;;;3.28;1.08;;;19.40;99.90;;;;;;5070254;28;20073;-71
2022/07/28 12:16:28;;;;;;;2.30;0.80;;;18.80;99.90;;;;;;5073245;28;20048;-71
2022/07/28 12:18:53;;;;;;;1.98;1.20;;;18.70;99.90;;;;;;5071823;28;20036;-71
2022/07/28 12:21:55;;;;;;;4.63;0.85;;;18.80;99.90;;;;;;5071500;28;20065;-72
2022/07/28 12:24:26;;;;;;;2.35;1.05;;;18.70;99.90;;;;;;4968743;28;20039;-70
2022/07/28 12:26:52;;;;;;;3.40;0.90;;;19.40;99.90;;;;;;5038931;28;20128;-71
2022/07/28 12:29:18;;;;;;;2.85;1.05;;;19.80;99.90;;;;;;5054832;28;20040;-70
2022/07/28 12:31:55;;;;;;;3.42;0.82;;;19.80;99.90;;;;;;5054826;28;20170;-72
2022/07/28 12:34:21;;;;;;;1.30;0.90;;;20.10;99.90;;;;;;5054264;28;20113;-70
2022/07/28 12:36:47;;;;;;;13.88;2.80;;;19.80;99.90;;;;;;5054508;28;20055;-71
2022/07/28 12:39:16;;;;;;;2.47;1.00;;;20.10;99.90;;;;;;5072866;28;20079;-71
2022/07/28 12:41:42;;;;;;;2.80;1.02;;;19.60;99.90;;;;;;5072216;28;20047;-70
2022/07/28 12:44:08;;;;;;;1.95;0.90;;;20.20;99.90;;;;;;5037393;28;20043;-70
2022/07/28 12:46:34;;;;;;;1.73;1.08;;;20.70;99.90;;;;;;5054099;28;20036;-71
2022/07/28 12:49:01;;;;;;;3.65;1.50;;;20.50;99.90;;;;;;5053545;28;20036;-71
2022/07/28 12:51:36;;;;;;;2.05;0.80;;;20.20;99.90;;;;;;5071988;28;20112;-70
2022/07/28 12:54:07;;;;;;;4.35;1.30;;;20.30;99.90;;;;;;5054245;28;20733;-71
2022/07/28 12:56:49;;;;;;;1.27;0.70;;;20.60;99.80;;;;;;5054404;28;20036;-70
2022/07/28 12:59:19;;;;;;;5.45;1.05;;;21.50;99.90;;;;;;5053996;28;20115;-70
2022/07/28 13:01:47;;;;;;;4.47;1.17;;;20.30;99.50;;;;;;5037709;28;20494;-71